Hooper Bay Airport
PAHP : now visible

Airfield :











YOU CAN JOIN US ON...

 
LOGIN :

Register | Disclaimer

   EN    FR    IT 

 









Legend :    VFR   Marginal VFR   IFR   Intensive IFR   Very Intensive IFR
Visi :
Ceiling :
>= 8 km
>= 3000ft
5 to 8 km
1000 to 3000 ft
1500m to 5 km
500 to 1000 ft
800 to 1500m
200 to 500 ft
< 800m
< 200 ft
Symbols :   Thunderstorms  Fog  Heavy snow  Heavy precipitations  Wind > 20 kt






- Airport Elevation : 13 ft
- IATA code : HPB


PAHP - Hooper Bay

CURRENT METAR :
  • 231956Z AUTO 18011KT 10SM CLR M11/M13 A3030 RMK AO2 SLP259 T11111133 FZRANO $

EXPIRED METARs :
  • 231856Z AUTO 18008KT 10SM CLR M12/M14 A3030 RMK AO2 SLP262 T11171139 FZRANO $
  • 231756Z AUTO 19008KT 10SM FEW013 M12/M14 A3024 RMK AO2 SLP240 T11221144 11100 21122 55001 FZRANO $

TAF N/A



MET'MAP, your aeronautical weather chart ! - Copyright ORBIFLY December 2007 - Disclaimer

ORBIFLY MET'MAP TEAM :

Programming & Development : Alexandra Zaïnal
Concept & original design : Baudouin d'Aumeries
Assistance for programming : Marc-Olivier Méhu
Technical & hardware support : Manuel Goepfert

Contact : metmap@orbifly.com




SOURCES & CREDITS :

   NOAA       Earth
Advisory